sensor_id;sensor_type;location;lat;lon;timestamp;temperature;humidity
22108;DHT22;11220;48.812;9.128;2023-02-12T00:01:49;17.10;65.30
22108;DHT22;11220;48.812;9.128;2023-02-12T00:04:14;17.10;65.30
22108;DHT22;11220;48.812;9.128;2023-02-12T00:06:40;17.10;65.30
22108;DHT22;11220;48.812;9.128;2023-02-12T00:09:06;17.10;65.40
22108;DHT22;11220;48.812;9.128;2023-02-12T00:11:31;17.10;65.40
22108;DHT22;11220;48.812;9.128;2023-02-12T00:13:57;17.10;65.40
22108;DHT22;11220;48.812;9.128;2023-02-12T00:16:25;17.10;65.40
22108;DHT22;11220;48.812;9.128;2023-02-12T00:18:52;17.10;65.40
22108;DHT22;11220;48.812;9.128;2023-02-12T00:21:19;17.10;65.50
22108;DHT22;11220;48.812;9.128;2023-02-12T00:23:45;17.10;65.50
22108;DHT22;11220;48.812;9.128;2023-02-12T00:26:13;17.10;65.50
22108;DHT22;11220;48.812;9.128;2023-02-12T00:28:39;17.10;65.60
22108;DHT22;11220;48.812;9.128;2023-02-12T00:31:13;17.10;65.50
22108;DHT22;11220;48.812;9.128;2023-02-12T00:33:39;17.10;65.50
22108;DHT22;11220;48.812;9.128;2023-02-12T00:36:05;17.10;65.60
22108;DHT22;11220;48.812;9.128;2023-02-12T00:38:31;17.10;65.60
22108;DHT22;11220;48.812;9.128;2023-02-12T00:40:56;17.00;65.50
22108;DHT22;11220;48.812;9.128;2023-02-12T00:43:22;17.10;65.60
22108;DHT22;11220;48.812;9.128;2023-02-12T00:45:47;17.00;65.60
22108;DHT22;11220;48.812;9.128;2023-02-12T00:48:13;17.00;65.60
22108;DHT22;11220;48.812;9.128;2023-02-12T00:50:39;17.00;65.60
22108;DHT22;11220;48.812;9.128;2023-02-12T00:53:08;17.00;65.70
22108;DHT22;11220;48.812;9.128;2023-02-12T00:55:34;17.00;65.70
22108;DHT22;11220;48.812;9.128;2023-02-12T00:57:59;17.00;65.70
22108;DHT22;11220;48.812;9.128;2023-02-12T01:00:25;17.00;65.80
22108;DHT22;11220;48.812;9.128;2023-02-12T01:02:50;17.00;65.80
22108;DHT22;11220;48.812;9.128;2023-02-12T01:05:16;17.00;65.80
22108;DHT22;11220;48.812;9.128;2023-02-12T01:07:42;17.00;65.80
22108;DHT22;11220;48.812;9.128;2023-02-12T01:10:08;17.00;65.80
22108;DHT22;11220;48.812;9.128;2023-02-12T01:12:34;17.00;65.80
22108;DHT22;11220;48.812;9.128;2023-02-12T01:15:00;16.90;65.70
22108;DHT22;11220;48.812;9.128;2023-02-12T01:17:25;17.00;65.80
22108;DHT22;11220;48.812;9.128;2023-02-12T01:19:56;16.90;65.70
22108;DHT22;11220;48.812;9.128;2023-02-12T01:22:22;16.90;65.70
22108;DHT22;11220;48.812;9.128;2023-02-12T01:24:48;16.90;65.70
22108;DHT22;11220;48.812;9.128;2023-02-12T01:27:14;16.90;65.80
22108;DHT22;11220;48.812;9.128;2023-02-12T01:29:40;16.90;65.80
22108;DHT22;11220;48.812;9.128;2023-02-12T01:32:09;16.90;65.70
22108;DHT22;11220;48.812;9.128;2023-02-12T01:34:35;16.90;65.80
22108;DHT22;11220;48.812;9.128;2023-02-12T01:37:01;16.90;65.80
22108;DHT22;11220;48.812;9.128;2023-02-12T01:39:26;16.90;65.90
22108;DHT22;11220;48.812;9.128;2023-02-12T01:41:52;16.90;66.80
22108;DHT22;11220;48.812;9.128;2023-02-12T01:44:20;16.90;65.80
22108;DHT22;11220;48.812;9.128;2023-02-12T01:46:58;16.90;65.90
22108;DHT22;11220;48.812;9.128;2023-02-12T01:49:29;16.90;65.90
22108;DHT22;11220;48.812;9.128;2023-02-12T01:52:06;16.80;65.80
22108;DHT22;11220;48.812;9.128;2023-02-12T01:54:34;16.90;65.90
22108;DHT22;11220;48.812;9.128;2023-02-12T01:57:02;16.90;66.00
22108;DHT22;11220;48.812;9.128;2023-02-12T01:59:29;16.80;65.80
22108;DHT22;11220;48.812;9.128;2023-02-12T02:01:55;16.90;66.00
22108;DHT22;11220;48.812;9.128;2023-02-12T02:04:24;16.80;65.90
22108;DHT22;11220;48.812;9.128;2023-02-12T02:07:00;16.80;66.00
22108;DHT22;11220;48.812;9.128;2023-02-12T02:09:28;16.80;65.90
22108;DHT22;11220;48.812;9.128;2023-02-12T02:11:55;16.80;66.00
22108;DHT22;11220;48.812;9.128;2023-02-12T02:14:41;16.80;66.00
22108;DHT22;11220;48.812;9.128;2023-02-12T02:26:14;16.80;66.10
22108;DHT22;11220;48.812;9.128;2023-02-12T02:28:56;16.80;66.10
22108;DHT22;11220;48.812;9.128;2023-02-12T02:32:05;16.80;67.00
22108;DHT22;11220;48.812;9.128;2023-02-12T02:37:12;16.70;66.10
22108;DHT22;11220;48.812;9.128;2023-02-12T02:39:47;16.70;66.00
22108;DHT22;11220;48.812;9.128;2023-02-12T02:42:17;16.70;66.10
22108;DHT22;11220;48.812;9.128;2023-02-12T02:45:01;16.70;66.10
22108;DHT22;11220;48.812;9.128;2023-02-12T02:47:38;16.70;66.10
22108;DHT22;11220;48.812;9.128;2023-02-12T02:50:14;16.70;66.20
22108;DHT22;11220;48.812;9.128;2023-02-12T02:52:45;16.70;66.20
22108;DHT22;11220;48.812;9.128;2023-02-12T02:55:16;16.70;66.20
22108;DHT22;11220;48.812;9.128;2023-02-12T02:57:53;16.70;66.20
22108;DHT22;11220;48.812;9.128;2023-02-12T03:00:38;16.70;66.20
22108;DHT22;11220;48.812;9.128;2023-02-12T03:03:10;16.70;66.20
22108;DHT22;11220;48.812;9.128;2023-02-12T03:05:44;16.70;66.20
22108;DHT22;11220;48.812;9.128;2023-02-12T03:08:18;16.70;66.30
22108;DHT22;11220;48.812;9.128;2023-02-12T03:10:52;16.70;66.20
22108;DHT22;11220;48.812;9.128;2023-02-12T03:13:32;16.60;66.20
22108;DHT22;11220;48.812;9.128;2023-02-12T03:16:03;16.60;66.20
22108;DHT22;11220;48.812;9.128;2023-02-12T03:18:35;16.60;66.20
22108;DHT22;11220;48.812;9.128;2023-02-12T03:21:11;16.70;66.30
22108;DHT22;11220;48.812;9.128;2023-02-12T03:23:54;16.60;66.20
22108;DHT22;11220;48.812;9.128;2023-02-12T03:26:25;16.60;66.20
22108;DHT22;11220;48.812;9.128;2023-02-12T03:28:51;16.60;66.30
22108;DHT22;11220;48.812;9.128;2023-02-12T03:31:26;16.60;66.30
22108;DHT22;11220;48.812;9.128;2023-02-12T03:39:03;16.40;66.10
22108;DHT22;11220;48.812;9.128;2023-02-12T03:41:36;16.60;66.30
22108;DHT22;11220;48.812;9.128;2023-02-12T03:46:56;16.60;66.30
22108;DHT22;11220;48.812;9.128;2023-02-12T03:51:56;16.60;66.40
22108;DHT22;11220;48.812;9.128;2023-02-12T03:54:23;16.50;66.30
22108;DHT22;11220;48.812;9.128;2023-02-12T03:56:53;16.50;66.30
22108;DHT22;11220;48.812;9.128;2023-02-12T03:59:21;16.50;66.30
22108;DHT22;11220;48.812;9.128;2023-02-12T04:01:49;16.60;66.40
22108;DHT22;11220;48.812;9.128;2023-02-12T04:04:16;16.50;66.40
22108;DHT22;11220;48.812;9.128;2023-02-12T04:06:43;16.50;66.40
22108;DHT22;11220;48.812;9.128;2023-02-12T04:09:11;16.50;66.40
22108;DHT22;11220;48.812;9.128;2023-02-12T04:14:45;16.50;66.40
22108;DHT22;11220;48.812;9.128;2023-02-12T04:17:43;16.50;66.40
22108;DHT22;11220;48.812;9.128;2023-02-12T04:20:24;16.50;66.40
22108;DHT22;11220;48.812;9.128;2023-02-12T04:26:11;16.50;66.50
22108;DHT22;11220;48.812;9.128;2023-02-12T04:29:56;16.50;66.50
22108;DHT22;11220;48.812;9.128;2023-02-12T04:31:55;16.50;66.60
22108;DHT22;11220;48.812;9.128;2023-02-12T04:37:27;16.50;66.60
22108;DHT22;11220;48.812;9.128;2023-02-12T04:39:57;16.40;66.50
22108;DHT22;11220;48.812;9.128;2023-02-12T04:42:23;16.50;66.70
22108;DHT22;11220;48.812;9.128;2023-02-12T04:44:48;16.40;66.60
22108;DHT22;11220;48.812;9.128;2023-02-12T04:47:15;16.50;66.70
22108;DHT22;11220;48.812;9.128;2023-02-12T04:49:40;16.40;66.60
22108;DHT22;11220;48.812;9.128;2023-02-12T04:52:06;16.40;66.60
22108;DHT22;11220;48.812;9.128;2023-02-12T04:54:32;16.40;66.60
22108;DHT22;11220;48.812;9.128;2023-02-12T04:56:58;16.40;66.60
22108;DHT22;11220;48.812;9.128;2023-02-12T04:59:23;16.40;66.70
22108;DHT22;11220;48.812;9.128;2023-02-12T05:01:49;16.40;66.70
22108;DHT22;11220;48.812;9.128;2023-02-12T05:04:16;16.40;66.70
22108;DHT22;11220;48.812;9.128;2023-02-12T05:06:42;16.40;66.70
22108;DHT22;11220;48.812;9.128;2023-02-12T05:09:13;16.40;66.70
22108;DHT22;11220;48.812;9.128;2023-02-12T05:11:39;16.40;66.70
22108;DHT22;11220;48.812;9.128;2023-02-12T05:14:05;16.40;66.80
22108;DHT22;11220;48.812;9.128;2023-02-12T05:16:30;16.40;66.80
22108;DHT22;11220;48.812;9.128;2023-02-12T05:18:56;16.40;66.80
22108;DHT22;11220;48.812;9.128;2023-02-12T05:21:22;16.40;66.80
22108;DHT22;11220;48.812;9.128;2023-02-12T05:23:47;16.30;66.70
22108;DHT22;11220;48.812;9.128;2023-02-12T05:26:17;16.40;66.80
22108;DHT22;11220;48.812;9.128;2023-02-12T05:28:43;16.30;66.70
22108;DHT22;11220;48.812;9.128;2023-02-12T05:31:12;16.30;66.70
22108;DHT22;11220;48.812;9.128;2023-02-12T05:33:37;16.30;66.70
22108;DHT22;11220;48.812;9.128;2023-02-12T05:36:09;16.30;66.80
22108;DHT22;11220;48.812;9.128;2023-02-12T05:38:35;16.30;66.80
22108;DHT22;11220;48.812;9.128;2023-02-12T05:41:15;16.30;66.80
22108;DHT22;11220;48.812;9.128;2023-02-12T05:43:41;16.30;66.80
22108;DHT22;11220;48.812;9.128;2023-02-12T05:46:08;16.30;66.90
22108;DHT22;11220;48.812;9.128;2023-02-12T05:48:34;16.30;66.80
22108;DHT22;11220;48.812;9.128;2023-02-12T05:51:12;16.30;67.80
22108;DHT22;11220;48.812;9.128;2023-02-12T05:53:39;16.30;66.80
22108;DHT22;11220;48.812;9.128;2023-02-12T05:56:16;16.30;66.80
22108;DHT22;11220;48.812;9.128;2023-02-12T05:58:44;16.30;66.90
22108;DHT22;11220;48.812;9.128;2023-02-12T06:01:15;16.30;66.90
22108;DHT22;11220;48.812;9.128;2023-02-12T06:03:41;16.30;66.90
22108;DHT22;11220;48.812;9.128;2023-02-12T06:06:07;16.40;67.00
22108;DHT22;11220;48.812;9.128;2023-02-12T06:08:33;16.40;67.00
22108;DHT22;11220;48.812;9.128;2023-02-12T06:11:03;16.40;67.10
22108;DHT22;11220;48.812;9.128;2023-02-12T06:13:30;16.40;67.10
22108;DHT22;11220;48.812;9.128;2023-02-12T06:15:56;16.40;67.10
22108;DHT22;11220;48.812;9.128;2023-02-12T06:18:22;16.40;67.10
22108;DHT22;11220;48.812;9.128;2023-02-12T06:20:48;16.40;67.20
22108;DHT22;11220;48.812;9.128;2023-02-12T06:23:13;16.40;67.20
22108;DHT22;11220;48.812;9.128;2023-02-12T06:25:39;16.50;67.20
22108;DHT22;11220;48.812;9.128;2023-02-12T06:28:04;16.50;67.20
22108;DHT22;11220;48.812;9.128;2023-02-12T06:30:32;16.50;67.20
22108;DHT22;11220;48.812;9.128;2023-02-12T06:32:57;16.50;67.20
22108;DHT22;11220;48.812;9.128;2023-02-12T06:35:23;16.60;67.20
22108;DHT22;11220;48.812;9.128;2023-02-12T06:37:49;16.60;67.20
22108;DHT22;11220;48.812;9.128;2023-02-12T06:40:14;16.60;67.10
22108;DHT22;11220;48.812;9.128;2023-02-12T06:42:40;16.70;67.10
22108;DHT22;11220;48.812;9.128;2023-02-12T06:45:05;16.70;67.10
22108;DHT22;11220;48.812;9.128;2023-02-12T06:47:31;16.70;66.90
22108;DHT22;11220;48.812;9.128;2023-02-12T06:49:56;16.80;66.90
22108;DHT22;11220;48.812;9.128;2023-02-12T06:52:22;16.80;66.80
22108;DHT22;11220;48.812;9.128;2023-02-12T06:54:47;17.50;67.20
22108;DHT22;11220;48.812;9.128;2023-02-12T06:57:13;16.90;66.70
22108;DHT22;11220;48.812;9.128;2023-02-12T06:59:38;16.90;66.60
22108;DHT22;11220;48.812;9.128;2023-02-12T07:02:04;16.90;66.50
22108;DHT22;11220;48.812;9.128;2023-02-12T07:04:29;17.00;66.50
22108;DHT22;11220;48.812;9.128;2023-02-12T07:06:55;17.00;66.40
22108;DHT22;11220;48.812;9.128;2023-02-12T07:09:21;17.10;66.40
22108;DHT22;11220;48.812;9.128;2023-02-12T07:11:46;17.10;66.30
22108;DHT22;11220;48.812;9.128;2023-02-12T07:14:14;17.10;66.20
22108;DHT22;11220;48.812;9.128;2023-02-12T07:16:39;17.10;66.10
22108;DHT22;11220;48.812;9.128;2023-02-12T07:19:05;17.20;66.10
22108;DHT22;11220;48.812;9.128;2023-02-12T07:21:31;17.20;66.00
22108;DHT22;11220;48.812;9.128;2023-02-12T07:23:56;17.20;65.90
22108;DHT22;11220;48.812;9.128;2023-02-12T07:26:24;17.20;65.90
22108;DHT22;11220;48.812;9.128;2023-02-12T07:28:50;17.30;65.90
22108;DHT22;11220;48.812;9.128;2023-02-12T07:31:18;17.30;65.90
22108;DHT22;11220;48.812;9.128;2023-02-12T07:33:45;17.30;65.90
22108;DHT22;11220;48.812;9.128;2023-02-12T07:36:15;17.30;65.80
22108;DHT22;11220;48.812;9.128;2023-02-12T07:38:41;17.30;65.90
22108;DHT22;11220;48.812;9.128;2023-02-12T07:41:23;17.30;65.80
22108;DHT22;11220;48.812;9.128;2023-02-12T07:44:26;17.30;65.80
22108;DHT22;11220;48.812;9.128;2023-02-12T07:46:46;17.30;65.70
22108;DHT22;11220;48.812;9.128;2023-02-12T07:49:21;17.30;65.70
22108;DHT22;11220;48.812;9.128;2023-02-12T07:51:48;17.40;65.80
22108;DHT22;11220;48.812;9.128;2023-02-12T07:54:14;17.30;65.70
22108;DHT22;11220;48.812;9.128;2023-02-12T07:56:41;17.40;65.80
22108;DHT22;11220;48.812;9.128;2023-02-12T07:59:10;17.40;65.80
22108;DHT22;11220;48.812;9.128;2023-02-12T08:01:42;17.40;65.80
22108;DHT22;11220;48.812;9.128;2023-02-12T08:04:13;17.40;65.70
22108;DHT22;11220;48.812;9.128;2023-02-12T08:06:43;17.50;65.80
22108;DHT22;11220;48.812;9.128;2023-02-12T08:09:12;17.50;65.80
22108;DHT22;11220;48.812;9.128;2023-02-12T08:11:38;17.50;65.80
22108;DHT22;11220;48.812;9.128;2023-02-12T08:14:04;17.50;65.80
22108;DHT22;11220;48.812;9.128;2023-02-12T08:16:34;17.60;65.80
22108;DHT22;11220;48.812;9.128;2023-02-12T08:19:01;17.60;65.80
22108;DHT22;11220;48.812;9.128;2023-02-12T08:21:27;17.60;65.80
22108;DHT22;11220;48.812;9.128;2023-02-12T08:23:55;17.70;65.80
22108;DHT22;11220;48.812;9.128;2023-02-12T08:26:28;17.70;65.80
22108;DHT22;11220;48.812;9.128;2023-02-12T08:29:18;17.70;65.80
22108;DHT22;11220;48.812;9.128;2023-02-12T08:31:46;17.70;65.80
22108;DHT22;11220;48.812;9.128;2023-02-12T08:34:18;17.80;65.80
22108;DHT22;11220;48.812;9.128;2023-02-12T08:36:44;17.70;65.80
22108;DHT22;11220;48.812;9.128;2023-02-12T08:39:10;17.80;65.80
22108;DHT22;11220;48.812;9.128;2023-02-12T08:41:36;17.80;65.80
22108;DHT22;11220;48.812;9.128;2023-02-12T08:44:03;17.80;65.80
22108;DHT22;11220;48.812;9.128;2023-02-12T08:46:33;17.80;65.80
22108;DHT22;11220;48.812;9.128;2023-02-12T08:49:02;17.80;65.80
22108;DHT22;11220;48.812;9.128;2023-02-12T08:51:30;17.80;65.80
22108;DHT22;11220;48.812;9.128;2023-02-12T08:53:59;17.80;65.80
22108;DHT22;11220;48.812;9.128;2023-02-12T08:56:26;17.80;65.80
22108;DHT22;11220;48.812;9.128;2023-02-12T08:58:52;17.80;66.80
22108;DHT22;11220;48.812;9.128;2023-02-12T09:01:20;17.80;65.90
22108;DHT22;11220;48.812;9.128;2023-02-12T09:03:47;17.80;65.90
22108;DHT22;11220;48.812;9.128;2023-02-12T09:06:13;17.80;66.00
22108;DHT22;11220;48.812;9.128;2023-02-12T09:08:39;17.80;66.00
22108;DHT22;11220;48.812;9.128;2023-02-12T09:11:11;17.80;66.10
22108;DHT22;11220;48.812;9.128;2023-02-12T09:13:37;17.90;66.10
22108;DHT22;11220;48.812;9.128;2023-02-12T09:16:03;17.80;66.10
22108;DHT22;11220;48.812;9.128;2023-02-12T09:18:30;17.90;66.10
22108;DHT22;11220;48.812;9.128;2023-02-12T09:21:06;17.80;66.10
22108;DHT22;11220;48.812;9.128;2023-02-12T09:23:32;17.80;66.20
22108;DHT22;11220;48.812;9.128;2023-02-12T09:25:58;17.80;66.20
22108;DHT22;11220;48.812;9.128;2023-02-12T09:28:24;17.90;66.30
22108;DHT22;11220;48.812;9.128;2023-02-12T09:30:50;17.90;67.30
22108;DHT22;11220;48.812;9.128;2023-02-12T09:36:39;17.90;66.30
22108;DHT22;11220;48.812;9.128;2023-02-12T09:39:07;17.90;66.50
22108;DHT22;11220;48.812;9.128;2023-02-12T09:42:01;17.90;66.40
22108;DHT22;11220;48.812;9.128;2023-02-12T09:44:52;17.80;66.40
22108;DHT22;11220;48.812;9.128;2023-02-12T09:47:35;17.80;66.50
22108;DHT22;11220;48.812;9.128;2023-02-12T09:53:18;17.90;66.60
22108;DHT22;11220;48.812;9.128;2023-02-12T09:55:44;17.90;66.60
22108;DHT22;11220;48.812;9.128;2023-02-12T09:58:15;17.80;66.60
22108;DHT22;11220;48.812;9.128;2023-02-12T10:00:43;17.80;66.60
22108;DHT22;11220;48.812;9.128;2023-02-12T10:03:14;17.80;66.70
22108;DHT22;11220;48.812;9.128;2023-02-12T10:05:46;17.60;66.70
22108;DHT22;11220;48.812;9.128;2023-02-12T10:08:46;17.90;67.80
22108;DHT22;11220;48.812;9.128;2023-02-12T10:11:47;17.80;66.90
22108;DHT22;11220;48.812;9.128;2023-02-12T10:22:34;17.80;66.70
22108;DHT22;11220;48.812;9.128;2023-02-12T10:25:29;17.90;66.80
22108;DHT22;11220;48.812;9.128;2023-02-12T10:28:08;17.90;66.90
22108;DHT22;11220;48.812;9.128;2023-02-12T10:33:13;17.90;67.30
22108;DHT22;11220;48.812;9.128;2023-02-12T10:35:44;18.00;67.50
22108;DHT22;11220;48.812;9.128;2023-02-12T10:38:19;17.90;67.40
22108;DHT22;11220;48.812;9.128;2023-02-12T10:40:46;17.90;67.30
22108;DHT22;11220;48.812;9.128;2023-02-12T10:43:12;17.90;67.30
22108;DHT22;11220;48.812;9.128;2023-02-12T10:45:39;18.00;67.20
22108;DHT22;11220;48.812;9.128;2023-02-12T10:48:21;18.00;67.20
22108;DHT22;11220;48.812;9.128;2023-02-12T10:53:41;18.00;67.10
22108;DHT22;11220;48.812;9.128;2023-02-12T10:58:38;18.10;67.00
22108;DHT22;11220;48.812;9.128;2023-02-12T11:01:11;18.10;66.90
22108;DHT22;11220;48.812;9.128;2023-02-12T11:03:39;18.00;66.70
22108;DHT22;11220;48.812;9.128;2023-02-12T11:06:13;18.00;66.70
22108;DHT22;11220;48.812;9.128;2023-02-12T11:08:39;18.10;66.70
22108;DHT22;11220;48.812;9.128;2023-02-12T11:11:12;18.10;66.60
22108;DHT22;11220;48.812;9.128;2023-02-12T11:13:40;18.10;66.50
22108;DHT22;11220;48.812;9.128;2023-02-12T11:16:09;18.10;66.40
22108;DHT22;11220;48.812;9.128;2023-02-12T11:18:35;18.10;66.40
22108;DHT22;11220;48.812;9.128;2023-02-12T11:21:09;18.20;66.50
22108;DHT22;11220;48.812;9.128;2023-02-12T11:23:42;18.10;66.40
22108;DHT22;11220;48.812;9.128;2023-02-12T11:28:59;18.20;66.50
22108;DHT22;11220;48.812;9.128;2023-02-12T11:31:32;18.10;66.40
22108;DHT22;11220;48.812;9.128;2023-02-12T11:34:16;18.20;66.50
22108;DHT22;11220;48.812;9.128;2023-02-12T11:36:51;18.20;66.50
22108;DHT22;11220;48.812;9.128;2023-02-12T11:39:20;18.30;66.60
22108;DHT22;11220;48.812;9.128;2023-02-12T11:41:56;18.20;66.50
22108;DHT22;11220;48.812;9.128;2023-02-12T11:44:32;18.70;66.90
22108;DHT22;11220;48.812;9.128;2023-02-12T11:47:10;18.20;67.40
22108;DHT22;11220;48.812;9.128;2023-02-12T11:49:53;18.20;66.50
22108;DHT22;11220;48.812;9.128;2023-02-12T11:52:22;18.20;66.50
22108;DHT22;11220;48.812;9.128;2023-02-12T11:54:50;18.20;66.60
22108;DHT22;11220;48.812;9.128;2023-02-12T11:57:42;18.20;66.60
22108;DHT22;11220;48.812;9.128;2023-02-12T12:02:54;18.20;66.70
22108;DHT22;11220;48.812;9.128;2023-02-12T12:05:27;18.20;66.80
22108;DHT22;11220;48.812;9.128;2023-02-12T12:07:58;18.20;66.90
22108;DHT22;11220;48.812;9.128;2023-02-12T12:10:41;18.20;66.90
22108;DHT22;11220;48.812;9.128;2023-02-12T12:13:13;18.20;66.90
22108;DHT22;11220;48.812;9.128;2023-02-12T12:15:46;18.20;67.00
22108;DHT22;11220;48.812;9.128;2023-02-12T12:18:56;18.20;67.00
22108;DHT22;11220;48.812;9.128;2023-02-12T12:21:49;18.20;67.10
22108;DHT22;11220;48.812;9.128;2023-02-12T12:27:03;18.20;67.30
22108;DHT22;11220;48.812;9.128;2023-02-12T12:29:50;18.20;67.30
22108;DHT22;11220;48.812;9.128;2023-02-12T12:32:18;18.20;67.40
22108;DHT22;11220;48.812;9.128;2023-02-12T12:34:46;18.20;67.50
22108;DHT22;11220;48.812;9.128;2023-02-12T12:37:30;18.20;67.60
22108;DHT22;11220;48.812;9.128;2023-02-12T12:40:49;18.20;67.60
22108;DHT22;11220;48.812;9.128;2023-02-12T12:46:43;18.30;68.00
22108;DHT22;11220;48.812;9.128;2023-02-12T12:49:33;18.30;68.10
22108;DHT22;11220;48.812;9.128;2023-02-12T12:54:43;18.30;68.20
22108;DHT22;11220;48.812;9.128;2023-02-12T13:00:26;18.30;68.40
22108;DHT22;11220;48.812;9.128;2023-02-12T13:14:36;18.40;68.50
22108;DHT22;11220;48.812;9.128;2023-02-12T13:17:25;18.50;68.50
22108;DHT22;11220;48.812;9.128;2023-02-12T13:23:22;18.60;68.60
22108;DHT22;11220;48.812;9.128;2023-02-12T13:26:05;18.60;68.40
22108;DHT22;11220;48.812;9.128;2023-02-12T13:28:36;18.60;68.30
22108;DHT22;11220;48.812;9.128;2023-02-12T13:31:06;18.70;68.30
22108;DHT22;11220;48.812;9.128;2023-02-12T13:33:40;18.70;68.20
22108;DHT22;11220;48.812;9.128;2023-02-12T13:36:09;18.70;68.10
22108;DHT22;11220;48.812;9.128;2023-02-12T13:38:41;18.80;68.00
22108;DHT22;11220;48.812;9.128;2023-02-12T13:41:10;18.80;67.90
22108;DHT22;11220;48.812;9.128;2023-02-12T13:55:30;19.00;67.30
22108;DHT22;11220;48.812;9.128;2023-02-12T14:01:04;19.10;67.10
22108;DHT22;11220;48.812;9.128;2023-02-12T14:03:32;19.10;66.90
22108;DHT22;11220;48.812;9.128;2023-02-12T14:06:26;19.10;66.70
22108;DHT22;11220;48.812;9.128;2023-02-12T14:09:07;19.20;66.70
22108;DHT22;11220;48.812;9.128;2023-02-12T14:11:33;19.20;66.60
22108;DHT22;11220;48.812;9.128;2023-02-12T14:14:10;19.20;66.50
22108;DHT22;11220;48.812;9.128;2023-02-12T14:16:38;19.30;66.40
22108;DHT22;11220;48.812;9.128;2023-02-12T14:19:36;19.30;66.20
22108;DHT22;11220;48.812;9.128;2023-02-12T14:24:54;19.40;65.90
22108;DHT22;11220;48.812;9.128;2023-02-12T14:27:33;19.40;65.80
22108;DHT22;11220;48.812;9.128;2023-02-12T14:37:57;19.50;65.50
22108;DHT22;11220;48.812;9.128;2023-02-12T14:40:35;19.60;65.50
22108;DHT22;11220;48.812;9.128;2023-02-12T14:45:56;19.60;65.30
22108;DHT22;11220;48.812;9.128;2023-02-12T14:51:15;19.70;65.10
22108;DHT22;11220;48.812;9.128;2023-02-12T14:53:44;19.70;65.00
22108;DHT22;11220;48.812;9.128;2023-02-12T14:56:11;19.80;65.00
22108;DHT22;11220;48.812;9.128;2023-02-12T14:58:37;19.80;64.80
22108;DHT22;11220;48.812;9.128;2023-02-12T15:01:03;19.80;64.70
22108;DHT22;11220;48.812;9.128;2023-02-12T15:03:47;19.90;64.60
22108;DHT22;11220;48.812;9.128;2023-02-12T15:06:19;19.90;64.50
22108;DHT22;11220;48.812;9.128;2023-02-12T15:08:59;19.90;64.40
22108;DHT22;11220;48.812;9.128;2023-02-12T15:14:00;20.00;64.30
22108;DHT22;11220;48.812;9.128;2023-02-12T15:16:45;20.00;64.20
22108;DHT22;11220;48.812;9.128;2023-02-12T15:19:37;20.00;64.10
22108;DHT22;11220;48.812;9.128;2023-02-12T15:22:22;20.00;64.00
22108;DHT22;11220;48.812;9.128;2023-02-12T15:24:48;20.00;64.00
22108;DHT22;11220;48.812;9.128;2023-02-12T15:27:14;19.90;63.80
22108;DHT22;11220;48.812;9.128;2023-02-12T15:29:49;19.90;63.80
22108;DHT22;11220;48.812;9.128;2023-02-12T15:32:22;19.90;63.80
22108;DHT22;11220;48.812;9.128;2023-02-12T15:34:50;19.80;63.80
22108;DHT22;11220;48.812;9.128;2023-02-12T15:37:20;19.80;63.90
22108;DHT22;11220;48.812;9.128;2023-02-12T15:39:46;19.70;63.90
22108;DHT22;11220;48.812;9.128;2023-02-12T15:45:27;19.70;64.00
22108;DHT22;11220;48.812;9.128;2023-02-12T15:47:58;19.60;63.90
22108;DHT22;11220;48.812;9.128;2023-02-12T15:50:25;19.60;64.00
22108;DHT22;11220;48.812;9.128;2023-02-12T15:52:51;19.50;64.00
22108;DHT22;11220;48.812;9.128;2023-02-12T15:55:19;19.50;64.10
22108;DHT22;11220;48.812;9.128;2023-02-12T15:57:52;19.40;64.10
22108;DHT22;11220;48.812;9.128;2023-02-12T16:00:42;19.40;64.20
22108;DHT22;11220;48.812;9.128;2023-02-12T16:03:21;19.50;64.30
22108;DHT22;11220;48.812;9.128;2023-02-12T16:05:48;19.30;64.30
22108;DHT22;11220;48.812;9.128;2023-02-12T16:08:16;19.30;64.40
22108;DHT22;11220;48.812;9.128;2023-02-12T16:10:44;19.30;64.50
22108;DHT22;11220;48.812;9.128;2023-02-12T16:13:17;19.20;64.60
22108;DHT22;11220;48.812;9.128;2023-02-12T16:15:44;19.20;64.60
22108;DHT22;11220;48.812;9.128;2023-02-12T16:18:22;19.20;64.70
22108;DHT22;11220;48.812;9.128;2023-02-12T16:20:49;19.20;64.70
22108;DHT22;11220;48.812;9.128;2023-02-12T16:23:15;19.10;64.70
22108;DHT22;11220;48.812;9.128;2023-02-12T16:25:42;19.10;64.80
22108;DHT22;11220;48.812;9.128;2023-02-12T16:28:16;19.10;64.80
22108;DHT22;11220;48.812;9.128;2023-02-12T16:30:44;19.10;64.90
22108;DHT22;11220;48.812;9.128;2023-02-12T16:36:02;19.00;65.00
22108;DHT22;11220;48.812;9.128;2023-02-12T16:38:43;19.00;65.00
22108;DHT22;11220;48.812;9.128;2023-02-12T16:41:26;19.00;65.10
22108;DHT22;11220;48.812;9.128;2023-02-12T16:46:24;18.90;65.10
22108;DHT22;11220;48.812;9.128;2023-02-12T16:48:51;18.90;65.30
22108;DHT22;11220;48.812;9.128;2023-02-12T16:51:27;18.90;65.50
22108;DHT22;11220;48.812;9.128;2023-02-12T16:53:55;18.90;65.50
22108;DHT22;11220;48.812;9.128;2023-02-12T16:56:23;18.90;65.60
22108;DHT22;11220;48.812;9.128;2023-02-12T16:58:51;18.80;65.70
22108;DHT22;11220;48.812;9.128;2023-02-12T17:03:47;18.80;65.80
22108;DHT22;11220;48.812;9.128;2023-02-12T17:06:26;18.70;65.90
22108;DHT22;11220;48.812;9.128;2023-02-12T17:08:51;18.70;65.90
22108;DHT22;11220;48.812;9.128;2023-02-12T17:11:18;18.70;66.00
22108;DHT22;11220;48.812;9.128;2023-02-12T17:13:46;18.70;66.00
22108;DHT22;11220;48.812;9.128;2023-02-12T17:16:12;18.70;66.10
22108;DHT22;11220;48.812;9.128;2023-02-12T17:18:38;18.70;66.20
22108;DHT22;11220;48.812;9.128;2023-02-12T17:21:07;18.60;66.20
22108;DHT22;11220;48.812;9.128;2023-02-12T17:23:33;18.60;66.20
22108;DHT22;11220;48.812;9.128;2023-02-12T17:25:59;18.60;66.30
22108;DHT22;11220;48.812;9.128;2023-02-12T17:28:25;18.50;66.30
22108;DHT22;11220;48.812;9.128;2023-02-12T17:30:52;18.50;66.40
22108;DHT22;11220;48.812;9.128;2023-02-12T17:33:18;18.50;66.40
22108;DHT22;11220;48.812;9.128;2023-02-12T17:35:44;18.50;66.50
22108;DHT22;11220;48.812;9.128;2023-02-12T17:38:10;18.40;66.50
22108;DHT22;11220;48.812;9.128;2023-02-12T17:40:36;18.40;66.50
22108;DHT22;11220;48.812;9.128;2023-02-12T17:43:03;18.40;66.50
22108;DHT22;11220;48.812;9.128;2023-02-12T17:45:29;18.40;66.50
22108;DHT22;11220;48.812;9.128;2023-02-12T17:47:55;18.40;66.50
22108;DHT22;11220;48.812;9.128;2023-02-12T17:50:21;18.40;66.60
22108;DHT22;11220;48.812;9.128;2023-02-12T17:52:46;18.30;66.50
22108;DHT22;11220;48.812;9.128;2023-02-12T17:55:12;18.30;66.60
22108;DHT22;11220;48.812;9.128;2023-02-12T17:57:39;18.30;66.60
22108;DHT22;11220;48.812;9.128;2023-02-12T18:00:06;18.30;66.60
22108;DHT22;11220;48.812;9.128;2023-02-12T18:02:32;18.20;66.50
22108;DHT22;11220;48.812;9.128;2023-02-12T18:04:58;18.30;66.60